Time;durP1;ratioP1;P1;durP2;ratioP2;P2;SDS_P1;SDS_P2;PMS_P1;PMS_P2;Temp;Humidity;BMP_temperature;BMP_pressure;BME280_temperature;BME280_humidity;BME280_pressure;Samples;Min_cycle;Max_cycle;Signal;HPM_P1;HPM_P2
2022/10/20 00:01:10;;;;;;;14.77;12.87;;;-20.40;99.90;;;;;;5031968;28;20212;-74
2022/10/20 00:03:36;;;;;;;14.23;10.80;;;-21.80;99.90;;;;;;5033666;28;20200;-76
2022/10/20 00:06:26;;;;;;;19.07;12.87;;;-21.50;99.90;;;;;;5038218;28;20196;-73
2022/10/20 00:08:53;;;;;;;13.90;12.33;;;-20.10;99.90;;;;;;5037502;28;20224;-74
2022/10/20 00:11:21;;;;;;;16.17;11.80;;;-20.50;99.90;;;;;;5038988;28;20180;-72
2022/10/20 00:13:50;;;;;;;15.23;11.10;;;-20.60;99.90;;;;;;5038576;28;20181;-74
2022/10/20 00:16:16;;;;;;;23.27;14.07;;;-21.10;99.90;;;;;;5020736;28;20486;-73
2022/10/20 00:18:41;;;;;;;18.50;12.90;;;-18.40;99.90;;;;;;5024922;28;20189;-74
2022/10/20 00:21:13;;;;;;;15.47;12.30;;;-21.60;99.90;;;;;;5026671;28;20186;-75
2022/10/20 00:23:39;;;;;;;16.23;11.50;;;-20.70;99.90;;;;;;5023991;28;20212;-74
2022/10/20 00:26:26;;;;;;;16.77;11.80;;;-21.40;99.90;;;;;;5031860;28;20200;-75
2022/10/20 00:28:52;;;;;;;22.47;11.10;;;-20.80;99.90;;;;;;5028714;28;20196;-75
2022/10/20 00:31:20;;;;;;;15.33;12.20;;;-22.40;99.90;;;;;;5037168;28;20189;-74
2022/10/20 00:33:46;;;;;;;26.90;11.73;;;-20.00;99.90;;;;;;5033922;28;20189;-75
2022/10/20 00:36:14;;;;;;;14.13;12.63;;;-17.90;99.90;;;;;;5030401;28;20238;-74
2022/10/20 00:38:41;;;;;;;15.87;12.17;;;-20.60;99.90;;;;;;5029954;28;20208;-76
2022/10/20 00:41:08;;;;;;;16.50;12.23;;;-18.20;99.90;;;;;;5033321;28;20301;-77
2022/10/20 00:43:52;;;;;;;18.23;12.50;;;-15.90;99.90;;;;;;5028840;28;20229;-76
2022/10/20 00:46:26;;;;;;;17.50;12.17;;;-17.40;99.90;;;;;;5037220;28;20184;-77
2022/10/20 00:48:58;;;;;;;20.73;12.40;;;-20.10;99.90;;;;;;5032691;28;20181;-77
2022/10/20 00:51:29;;;;;;;12.97;11.23;;;-18.80;99.90;;;;;;5037578;28;20608;-73
2022/10/20 00:54:06;;;;;;;16.10;12.27;;;-18.20;99.90;;;;;;5019228;28;20189;-75
2022/10/20 00:56:34;;;;;;;15.17;12.87;;;-16.90;99.90;;;;;;5030983;28;20176;-77
2022/10/20 00:59:01;;;;;;;18.20;12.97;;;-16.40;99.90;;;;;;5031217;28;20654;-77
2022/10/20 01:01:27;;;;;;;16.03;11.93;;;-16.00;99.90;;;;;;5036346;28;20266;-75
2022/10/20 01:03:53;;;;;;;17.67;12.73;;;-16.40;99.90;;;;;;5037417;28;20584;-76
2022/10/20 01:06:21;;;;;;;16.33;12.50;;;-16.50;99.90;;;;;;5037369;28;20234;-75
2022/10/20 01:08:47;;;;;;;23.17;13.47;;;-17.40;99.90;;;;;;5035184;28;20216;-76
2022/10/20 01:11:37;;;;;;;18.50;11.83;;;-16.50;99.90;;;;;;5024432;28;20185;-78
2022/10/20 01:14:25;;;;;;;16.87;12.60;;;-17.30;99.90;;;;;;5033765;28;20180;-73
2022/10/20 01:17:18;;;;;;;14.17;12.63;;;-16.20;99.90;;;;;;5037291;28;20212;-74
2022/10/20 01:19:55;;;;;;;38.57;13.70;;;-16.20;99.90;;;;;;5033306;28;20181;-76
2022/10/20 01:22:39;;;;;;;27.37;13.20;;;-17.00;99.90;;;;;;5024710;28;20189;-77
2022/10/20 01:25:27;;;;;;;19.83;11.83;;;-16.40;99.90;;;;;;5051927;28;20468;-77
2022/10/20 01:28:16;;;;;;;18.97;12.93;;;-17.30;99.90;;;;;;5032105;28;20278;-75
2022/10/20 01:30:48;;;;;;;12.73;11.50;;;-17.40;99.90;;;;;;5018571;28;20197;-71
2022/10/20 01:33:27;;;;;;;15.00;12.07;;;-19.10;99.90;;;;;;5034344;28;20245;-74
2022/10/20 01:36:05;;;;;;;14.97;13.27;;;-21.00;99.90;;;;;;5034993;28;20584;-72
2022/10/20 01:38:49;;;;;;;12.80;11.50;;;-18.80;99.90;;;;;;5032672;28;20209;-75
2022/10/20 01:41:26;;;;;;;22.37;13.63;;;-19.00;99.90;;;;;;5037140;28;20173;-75
2022/10/20 01:43:53;;;;;;;14.20;12.77;;;-16.70;99.90;;;;;;5029681;28;20184;-72
2022/10/20 01:46:23;;;;;;;18.07;11.97;;;-16.70;99.90;;;;;;5031981;28;20199;-73
2022/10/20 01:48:49;;;;;;;19.53;12.73;;;-15.70;99.90;;;;;;5029718;28;20276;-76
2022/10/20 01:51:14;;;;;;;16.53;12.10;;;-15.60;99.90;;;;;;5031040;28;20580;-76
2022/10/20 01:53:40;;;;;;;15.67;12.90;;;-14.30;99.90;;;;;;5036713;28;20467;-74
2022/10/20 01:56:15;;;;;;;18.77;11.50;;;-16.00;99.90;;;;;;5036219;28;20231;-75
2022/10/20 01:59:03;;;;;;;15.23;12.47;;;-15.90;99.90;;;;;;5032574;28;20214;-76
2022/10/20 02:02:12;;;;;;;20.87;12.40;;;-15.50;99.90;;;;;;5029640;28;20212;-72
2022/10/20 02:05:20;;;;;;;14.67;11.27;;;-15.40;99.90;;;;;;5032486;28;20180;-75
2022/10/20 02:07:46;;;;;;;12.53;11.23;;;-16.30;99.90;;;;;;5027261;28;20193;-76
2022/10/20 02:10:28;;;;;;;11.97;10.70;;;-20.30;99.90;;;;;;5029987;28;20223;-78
2022/10/20 02:12:59;;;;;;;14.13;12.67;;;-17.00;99.90;;;;;;5024635;28;20198;-75
2022/10/20 02:15:27;;;;;;;12.50;10.80;;;-15.80;99.90;;;;;;5031764;28;20181;-75
2022/10/20 02:17:59;;;;;;;13.97;12.50;;;-16.70;99.90;;;;;;5025929;28;20212;-76
2022/10/20 02:20:28;;;;;;;14.77;13.07;;;-16.10;99.90;;;;;;5034853;28;20180;-75
2022/10/20 02:22:56;;;;;;;13.57;10.63;;;-15.50;99.90;;;;;;5031298;28;20240;-76
2022/10/20 02:25:23;;;;;;;13.30;11.67;;;-16.10;99.90;;;;;;5030248;28;20192;-78
2022/10/20 02:27:50;;;;;;;14.90;11.57;;;-18.00;99.90;;;;;;5027670;28;20230;-77
2022/10/20 02:30:18;;;;;;;14.27;10.33;;;-17.20;99.90;;;;;;5031411;28;20190;-74
2022/10/20 02:32:51;;;;;;;12.83;11.43;;;-17.20;99.90;;;;;;5024991;28;20191;-77
2022/10/20 02:35:20;;;;;;;17.27;12.00;;;-18.40;99.90;;;;;;5033395;28;20184;-76
2022/10/20 02:37:46;;;;;;;22.93;12.67;;;-16.80;99.90;;;;;;5035912;28;20259;-76
2022/10/20 02:40:12;;;;;;;15.37;12.90;;;-17.30;99.90;;;;;;5029249;28;20188;-75
2022/10/20 02:42:39;;;;;;;15.47;12.63;;;-20.30;99.90;;;;;;5030887;28;20173;-74
2022/10/20 02:45:06;;;;;;;12.90;11.50;;;-20.80;99.90;;;;;;5017703;28;20186;-75
2022/10/20 02:47:32;;;;;;;17.57;13.27;;;-16.80;99.90;;;;;;5046369;28;20195;-76
2022/10/20 02:49:58;;;;;;;13.73;12.20;;;-18.30;99.90;;;;;;5035989;28;20189;-77
2022/10/20 02:52:24;;;;;;;22.87;15.10;;;-19.20;99.90;;;;;;5035971;28;20624;-76
2022/10/20 02:54:50;;;;;;;20.00;13.20;;;-19.90;99.90;;;;;;5047301;28;20592;-78
2022/10/20 02:57:15;;;;;;;16.20;13.27;;;-20.50;99.90;;;;;;5035732;28;20280;-76
2022/10/20 02:59:41;;;;;;;15.27;13.67;;;-20.50;99.90;;;;;;5024667;28;20181;-73
2022/10/20 03:02:07;;;;;;;14.20;12.43;;;-19.80;99.90;;;;;;5028742;28;20212;-75
2022/10/20 03:04:32;;;;;;;14.30;11.80;;;-17.90;99.90;;;;;;5035351;28;20275;-77
2022/10/20 03:06:58;;;;;;;18.80;11.57;;;-17.90;99.90;;;;;;5045015;28;20242;-75
2022/10/20 03:09:24;;;;;;;15.17;13.30;;;-17.90;99.90;;;;;;5029180;28;20497;-77
2022/10/20 03:11:50;;;;;;;18.60;11.80;;;-17.80;99.90;;;;;;5030097;28;20547;-75
2022/10/20 03:14:15;;;;;;;17.37;11.93;;;-18.20;99.90;;;;;;5047669;28;20189;-77
2022/10/20 03:16:41;;;;;;;13.63;12.23;;;-17.70;99.90;;;;;;5026847;28;20180;-75
2022/10/20 03:19:07;;;;;;;13.97;11.37;;;-19.70;99.90;;;;;;5026518;28;20180;-77
2022/10/20 03:21:33;;;;;;;15.63;11.67;;;-18.80;99.90;;;;;;5034965;28;20273;-76
2022/10/20 03:23:59;;;;;;;14.40;12.10;;;-19.30;99.90;;;;;;5035667;28;20495;-77
2022/10/20 03:26:24;;;;;;;14.67;11.30;;;-21.80;99.90;;;;;;5039340;28;20261;-77
2022/10/20 03:28:50;;;;;;;15.07;11.93;;;-21.30;99.90;;;;;;5035153;28;20185;-77
2022/10/20 03:31:16;;;;;;;15.30;11.60;;;-20.40;99.90;;;;;;5049264;28;20188;-76
2022/10/20 03:33:41;;;;;;;13.43;12.03;;;-19.60;99.90;;;;;;5034871;28;20186;-78
2022/10/20 03:36:07;;;;;;;18.93;12.30;;;-20.80;99.90;;;;;;5038130;28;20181;-78
2022/10/20 03:38:33;;;;;;;16.47;11.80;;;-18.60;99.90;;;;;;5034041;28;20215;-72
2022/10/20 03:40:59;;;;;;;16.63;12.10;;;-18.10;99.90;;;;;;5035816;28;20250;-72
2022/10/20 03:43:25;;;;;;;14.43;12.77;;;-18.30;99.90;;;;;;5038974;28;20526;-70
2022/10/20 03:46:03;;;;;;;15.00;11.87;;;-18.00;99.90;;;;;;5039336;28;20180;-70
2022/10/20 03:48:30;;;;;;;11.23;10.13;;;-22.40;99.90;;;;;;5031329;28;20184;-73
2022/10/20 03:50:56;;;;;;;13.30;11.90;;;-20.80;99.90;;;;;;5039013;28;20239;-75
2022/10/20 03:53:21;;;;;;;14.53;11.40;;;-20.60;99.90;;;;;;5038512;28;20604;-76
2022/10/20 03:55:47;;;;;;;15.57;11.43;;;-22.60;99.90;;;;;;5038849;28;20246;-76
2022/10/20 03:58:13;;;;;;;13.27;11.97;;;-22.30;99.90;;;;;;5028787;28;20209;-77
2022/10/20 04:00:38;;;;;;;12.20;10.80;;;-17.80;99.90;;;;;;5025397;28;20202;-77
2022/10/20 04:03:04;;;;;;;13.73;10.73;;;-17.70;99.90;;;;;;5032075;28;20267;-76
2022/10/20 04:05:30;;;;;;;13.43;10.53;;;-16.90;99.90;;;;;;5047601;28;20204;-74
2022/10/20 04:07:56;;;;;;;20.03;12.60;;;-19.80;99.90;;;;;;5030117;28;20189;-74
2022/10/20 04:10:21;;;;;;;15.80;12.23;;;-15.80;99.90;;;;;;5038801;28;20250;-77
2022/10/20 04:12:47;;;;;;;16.90;11.20;;;-16.00;99.90;;;;;;5037071;28;20196;-75
2022/10/20 04:15:13;;;;;;;13.80;11.73;;;-15.70;99.90;;;;;;5025599;28;20181;-77
2022/10/20 04:17:39;;;;;;;14.50;12.50;;;-15.90;99.90;;;;;;5031658;28;20485;-71
2022/10/20 04:20:06;;;;;;;18.33;11.50;;;-19.50;99.90;;;;;;5030514;28;20593;-75
2022/10/20 04:22:32;;;;;;;15.60;12.33;;;-17.00;99.90;;;;;;5032757;28;20655;-73
2022/10/20 04:24:57;;;;;;;16.83;11.10;;;-18.80;99.90;;;;;;5036698;28;20184;-73
2022/10/20 04:27:23;;;;;;;16.57;11.43;;;-19.60;99.90;;;;;;5038039;28;20185;-75
2022/10/20 04:29:49;;;;;;;18.63;10.83;;;-20.40;99.90;;;;;;5031728;28;20183;-76
2022/10/20 04:32:15;;;;;;;16.73;12.53;;;-17.70;99.90;;;;;;5038128;28;20195;-77
2022/10/20 04:34:40;;;;;;;17.40;12.53;;;-18.00;99.90;;;;;;5020236;28;20200;-76
2022/10/20 04:37:06;;;;;;;12.73;11.23;;;-19.30;99.90;;;;;;5033940;28;20240;-76
2022/10/20 04:39:32;;;;;;;14.07;11.93;;;-18.60;99.90;;;;;;5037191;28;20177;-77
2022/10/20 04:41:58;;;;;;;15.67;11.30;;;-17.60;99.90;;;;;;5037810;28;20594;-78
2022/10/20 04:44:24;;;;;;;18.63;10.90;;;-15.00;99.90;;;;;;5038183;28;20176;-76
2022/10/20 04:46:50;;;;;;;18.53;12.13;;;-17.30;99.90;;;;;;5030683;28;20195;-76
2022/10/20 04:49:16;;;;;;;21.33;11.73;;;-16.60;99.90;;;;;;5037855;28;20211;-74
2022/10/20 04:51:41;;;;;;;32.97;12.77;;;-18.00;99.90;;;;;;5026539;28;20183;-76
2022/10/20 04:54:07;;;;;;;20.90;11.33;;;-19.70;99.90;;;;;;5032439;28;20211;-74
2022/10/20 04:56:33;;;;;;;11.97;10.20;;;-18.40;99.90;;;;;;5037366;28;20187;-75
2022/10/20 04:58:59;;;;;;;13.43;11.03;;;-19.90;99.90;;;;;;5021741;28;20180;-77
2022/10/20 05:01:26;;;;;;;16.10;12.17;;;-19.80;99.90;;;;;;5032090;28;20212;-74
2022/10/20 05:03:52;;;;;;;14.20;11.70;;;-22.00;99.90;;;;;;5030865;28;20181;-72
2022/10/20 05:06:22;;;;;;;21.83;10.77;;;-21.10;99.90;;;;;;5030211;28;20192;-72
2022/10/20 05:08:50;;;;;;;14.97;11.73;;;-19.00;99.90;;;;;;5024973;28;20190;-70
2022/10/20 05:11:17;;;;;;;13.60;10.50;;;-19.30;99.90;;;;;;5027202;28;20891;-73
2022/10/20 05:13:43;;;;;;;14.63;11.23;;;-19.60;99.90;;;;;;5031236;28;20192;-71
2022/10/20 05:16:10;;;;;;;12.30;11.03;;;-23.30;99.90;;;;;;5033637;28;20593;-71
2022/10/20 05:18:37;;;;;;;11.77;9.97;;;-24.10;99.90;;;;;;5037272;28;20207;-74
2022/10/20 05:21:18;;;;;;;12.00;10.27;;;-24.10;99.90;;;;;;5032944;28;20181;-73
2022/10/20 05:23:44;;;;;;;14.13;10.73;;;-24.50;99.90;;;;;;5034576;28;20258;-77
2022/10/20 05:26:17;;;;;;;16.10;10.97;;;-27.00;99.90;;;;;;5032121;28;20589;-73
2022/10/20 05:28:45;;;;;;;13.17;10.40;;;-26.60;99.90;;;;;;5028726;28;20208;-74
2022/10/20 05:31:12;;;;;;;13.83;9.93;;;-22.40;99.90;;;;;;5032400;28;20191;-74
2022/10/20 05:33:38;;;;;;;10.67;9.27;;;-24.10;99.90;;;;;;5032861;28;20184;-76
2022/10/20 05:36:12;;;;;;;11.63;10.23;;;-24.80;99.90;;;;;;5035676;28;20266;-72
2022/10/20 05:38:39;;;;;;;14.87;10.17;;;-22.50;99.90;;;;;;5018721;28;20538;-74
2022/10/20 05:41:11;;;;;;;11.10;9.37;;;-25.00;99.90;;;;;;5018401;28;20180;-74
2022/10/20 05:43:37;;;;;;;10.00;9.00;;;-25.60;99.90;;;;;;5019481;28;20548;-74
2022/10/20 05:46:04;;;;;;;12.63;10.57;;;-29.60;99.90;;;;;;5019272;28;20177;-74
2022/10/20 05:48:31;;;;;;;18.73;10.27;;;-25.80;99.90;;;;;;5021229;28;20275;-70
2022/10/20 05:51:13;;;;;;;14.00;10.63;;;-23.50;99.90;;;;;;5026294;28;20211;-72
2022/10/20 05:53:39;;;;;;;11.17;9.60;;;-19.70;99.90;;;;;;5027980;28;20213;-77
2022/10/20 05:56:06;;;;;;;10.53;9.43;;;-22.40;99.90;;;;;;5028737;28;20212;-74
2022/10/20 05:58:32;;;;;;;10.57;9.57;;;-24.90;99.90;;;;;;5025208;28;20214;-75
2022/10/20 06:01:16;;;;;;;11.67;9.53;;;-21.00;99.90;;;;;;5035599;28;20208;-71
2022/10/20 06:03:45;;;;;;;9.23;7.77;;;-23.00;99.90;;;;;;5030115;28;20180;-75
2022/10/20 06:06:11;;;;;;;10.63;9.53;;;-22.80;99.90;;;;;;5028800;28;20590;-75
2022/10/20 06:08:37;;;;;;;11.40;10.23;;;-19.40;99.90;;;;;;5029783;28;20246;-76
2022/10/20 06:11:08;;;;;;;10.27;9.20;;;-19.80;99.90;;;;;;5028105;28;20177;-77
2022/10/20 06:13:35;;;;;;;10.13;9.10;;;-16.90;99.90;;;;;;5031852;28;20187;-74
2022/10/20 06:16:12;;;;;;;14.87;8.63;;;-16.60;99.90;;;;;;5017429;28;20181;-74
2022/10/20 06:18:38;;;;;;;16.30;10.90;;;-22.90;99.90;;;;;;5024380;28;20297;-75
2022/10/20 06:21:07;;;;;;;12.27;9.90;;;-18.80;99.90;;;;;;5018634;28;20212;-74
2022/10/20 06:23:33;;;;;;;10.60;9.33;;;-19.40;99.90;;;;;;5017335;28;20181;-72
2022/10/20 06:26:04;;;;;;;10.10;8.60;;;-18.90;99.90;;;;;;5026887;28;20264;-72
2022/10/20 06:28:31;;;;;;;8.70;7.80;;;-19.00;99.90;;;;;;5036012;28;20268;-75
2022/10/20 06:30:58;;;;;;;16.10;9.40;;;-20.20;99.90;;;;;;5034129;28;20447;-73
2022/10/20 06:33:25;;;;;;;10.03;8.70;;;-21.40;99.90;;;;;;5032555;28;20279;-71
2022/10/20 06:35:50;;;;;;;9.83;8.30;;;-24.20;99.90;;;;;;5027869;28;20208;-70
2022/10/20 06:38:16;;;;;;;9.60;7.93;;;-24.80;99.90;;;;;;5035735;28;20647;-68
2022/10/20 06:40:42;;;;;;;8.80;7.97;;;-24.60;99.90;;;;;;5021718;28;20212;-74
2022/10/20 06:43:07;;;;;;;10.67;8.17;;;-21.90;99.90;;;;;;5024229;28;20251;-69
2022/10/20 06:45:33;;;;;;;9.00;7.50;;;-21.30;99.90;;;;;;5030447;28;20181;-69
2022/10/20 06:47:59;;;;;;;14.23;7.63;;;-23.30;99.90;;;;;;5030291;28;20184;-69
2022/10/20 06:50:24;;;;;;;12.87;8.70;;;-23.80;99.90;;;;;;5035430;28;20187;-70
2022/10/20 06:52:50;;;;;;;16.67;8.27;;;-23.10;99.90;;;;;;5030137;28;20440;-70
2022/10/20 06:55:16;;;;;;;9.43;8.33;;;-25.20;99.90;;;;;;5035139;28;20611;-72
2022/10/20 06:57:42;;;;;;;10.23;7.67;;;-27.30;99.90;;;;;;5030072;28;20206;-74
2022/10/20 07:00:08;;;;;;;13.83;8.67;;;-25.10;99.90;;;;;;5028758;28;20184;-71
2022/10/20 07:02:36;;;;;;;12.63;8.30;;;-26.20;99.90;;;;;;5038770;28;20194;-74
2022/10/20 07:05:02;;;;;;;16.27;9.33;;;-27.60;99.90;;;;;;5028804;28;20234;-74
2022/10/20 07:07:28;;;;;;;12.70;8.47;;;-25.30;99.90;;;;;;5035423;28;20196;-76
2022/10/20 07:09:53;;;;;;;10.77;7.50;;;-26.70;99.90;;;;;;5035377;28;20184;-74
2022/10/20 07:12:19;;;;;;;9.73;8.73;;;-24.20;99.90;;;;;;5035254;28;20180;-73
2022/10/20 07:14:45;;;;;;;11.90;7.90;;;-25.70;99.90;;;;;;5033664;28;20177;-71
2022/10/20 07:17:10;;;;;;;13.00;8.67;;;-30.90;99.90;;;;;;5024461;28;20236;-73
2022/10/20 07:19:36;;;;;;;15.07;9.47;;;-30.30;99.90;;;;;;5023401;28;20177;-72
2022/10/20 07:22:02;;;;;;;12.97;9.07;;;-35.90;99.90;;;;;;5028351;28;20188;-71
2022/10/20 07:24:28;;;;;;;14.50;8.57;;;-26.50;99.90;;;;;;5022989;28;20179;-71
2022/10/20 07:26:54;;;;;;;9.63;7.30;;;-35.10;99.90;;;;;;5034953;28;20184;-72
2022/10/20 07:29:19;;;;;;;9.37;7.60;;;-30.60;99.90;;;;;;5035256;28;20184;-75
2022/10/20 07:31:46;;;;;;;8.27;7.23;;;-36.20;99.90;;;;;;5028930;28;20210;-74
2022/10/20 07:34:15;;;;;;;9.23;7.43;;;-40.00;99.90;;;;;;5024498;28;20591;-71
2022/10/20 07:36:42;;;;;;;13.93;6.80;;;-39.90;99.90;;;;;;5029982;28;20764;-71
2022/10/20 07:39:10;;;;;;;13.87;7.33;;;-40.00;99.90;;;;;;5025365;28;20603;-75
2022/10/20 07:41:38;;;;;;;11.83;7.33;;;-40.00;99.90;;;;;;5030408;28;20588;-71
2022/10/20 07:44:04;;;;;;;13.27;7.83;;;-40.00;99.90;;;;;;5034561;28;20180;-70
2022/10/20 07:46:30;;;;;;;12.67;8.43;;;-40.00;99.90;;;;;;5029635;28;20185;-73
2022/10/20 07:48:56;;;;;;;11.17;7.90;;;-40.00;99.90;;;;;;5032860;28;20455;-69
2022/10/20 07:51:29;;;;;;;13.83;8.17;;;-40.00;99.90;;;;;;5024421;28;20185;-72
2022/10/20 07:54:08;;;;;;;7.87;7.07;;;-40.00;99.90;;;;;;5028119;28;20183;-73
2022/10/20 07:56:41;;;;;;;17.20;8.53;;;-40.00;99.90;;;;;;5034365;28;20179;-73
2022/10/20 07:59:08;;;;;;;7.93;6.20;;;-40.00;99.90;;;;;;5037037;28;20250;-73
2022/10/20 08:01:35;;;;;;;7.83;6.67;;;-40.00;99.90;;;;;;5041246;28;20211;-71
2022/10/20 08:04:01;;;;;;;9.83;6.37;;;-40.00;99.90;;;;;;5037871;28;20195;-71
2022/10/20 08:06:27;;;;;;;12.37;8.17;;;-40.00;99.90;;;;;;5033932;28;20209;-69
2022/10/20 08:08:54;;;;;;;7.53;6.63;;;-40.00;99.90;;;;;;5028259;28;20189;-71
2022/10/20 08:11:20;;;;;;;8.00;7.20;;;-40.00;99.90;;;;;;5037940;28;20176;-71
2022/10/20 08:13:46;;;;;;;7.27;6.67;;;-40.00;99.90;;;;;;5021573;28;20277;-73
2022/10/20 08:16:14;;;;;;;8.17;6.37;;;-40.00;99.90;;;;;;5032585;28;20185;-70
2022/10/20 08:18:41;;;;;;;13.03;7.50;;;-40.00;99.90;;;;;;5019804;28;20197;-73
2022/10/20 08:21:18;;;;;;;8.97;8.10;;;-40.00;99.90;;;;;;5022330;28;20544;-72
2022/10/20 08:24:04;;;;;;;21.20;13.37;;;-40.00;99.90;;;;;;5027656;28;20179;-69
2022/10/20 08:26:30;;;;;;;42.00;33.73;;;-40.00;99.90;;;;;;5027545;28;20178;-71
2022/10/20 08:28:56;;;;;;;24.33;15.97;;;-40.00;99.90;;;;;;5034226;28;20191;-70
2022/10/20 08:31:22;;;;;;;12.23;10.10;;;-40.00;99.90;;;;;;5034769;28;20188;-69
2022/10/20 08:33:48;;;;;;;11.17;8.27;;;-40.00;99.90;;;;;;5036030;28;20673;-70
2022/10/20 08:36:14;;;;;;;10.90;8.77;;;-40.00;99.90;;;;;;5035622;28;20184;-69
2022/10/20 08:38:42;;;;;;;15.07;9.10;;;-40.00;99.90;;;;;;5040815;28;20210;-70
2022/10/20 08:41:18;;;;;;;14.50;9.33;;;-40.00;99.90;;;;;;5034556;28;20173;-69
2022/10/20 08:43:46;;;;;;;16.07;9.47;;;-37.30;99.90;;;;;;5037318;28;20254;-68
2022/10/20 08:46:17;;;;;;;18.47;10.97;;;-37.90;99.90;;;;;;5036671;28;20548;-68
2022/10/20 08:48:45;;;;;;;20.37;10.97;;;-39.80;99.90;;;;;;5029278;28;20176;-67
2022/10/20 08:51:23;;;;;;;13.27;8.90;;;-36.50;99.90;;;;;;5036244;28;20180;-68
2022/10/20 08:53:52;;;;;;;17.30;10.30;;;-37.60;99.90;;;;;;5037579;28;20180;-67
2022/10/20 08:56:23;;;;;;;17.23;9.83;;;-32.60;99.90;;;;;;5025206;28;20268;-70
2022/10/20 08:58:49;;;;;;;20.83;10.70;;;-33.50;99.90;;;;;;5019958;28;20613;-68
2022/10/20 09:01:25;;;;;;;14.63;9.90;;;-34.10;99.90;;;;;;5036629;28;20243;-68
2022/10/20 09:03:58;;;;;;;17.17;9.97;;;-32.50;99.90;;;;;;5033599;28;20212;-73
2022/10/20 09:06:24;;;;;;;19.57;11.50;;;-32.50;99.90;;;;;;5026705;28;20188;-69
2022/10/20 09:08:51;;;;;;;15.90;10.73;;;-30.30;99.90;;;;;;5036273;28;20208;-68
2022/10/20 09:11:24;;;;;;;15.70;11.00;;;-30.70;99.90;;;;;;5029688;28;20472;-67
2022/10/20 09:13:52;;;;;;;11.87;10.63;;;-32.90;99.90;;;;;;5030874;28;20188;-69
2022/10/20 09:16:37;;;;;;;15.37;11.83;;;-30.30;99.90;;;;;;5029598;28;20633;-69
2022/10/20 09:19:05;;;;;;;14.03;11.53;;;-29.80;99.90;;;;;;5026164;28;20200;-68
2022/10/20 09:21:32;;;;;;;16.20;11.80;;;-31.70;99.90;;;;;;5019919;28;20279;-68
2022/10/20 09:24:04;;;;;;;13.87;11.33;;;-30.60;99.90;;;;;;5018981;28;20178;-67
2022/10/20 09:26:30;;;;;;;20.03;11.50;;;-32.20;99.90;;;;;;5031462;28;20189;-67
2022/10/20 09:29:05;;;;;;;13.07;11.57;;;-38.90;99.90;;;;;;5028118;28;20291;-70
2022/10/20 09:31:32;;;;;;;18.17;12.77;;;-36.80;99.90;;;;;;5022968;28;20520;-72
2022/10/20 09:33:58;;;;;;;22.07;12.20;;;-32.40;99.90;;;;;;5033079;28;20185;-68
2022/10/20 09:36:30;;;;;;;14.83;11.83;;;-32.10;99.90;;;;;;5036824;28;20192;-68
2022/10/20 09:38:56;;;;;;;17.10;11.70;;;-39.60;99.90;;;;;;5036886;28;20224;-69
2022/10/20 09:41:28;;;;;;;16.73;11.70;;;-39.30;99.90;;;;;;5032785;28;20189;-67
2022/10/20 09:44:22;;;;;;;16.70;11.70;;;-35.90;99.90;;;;;;5035359;28;20234;-68
2022/10/20 09:46:50;;;;;;;14.00;12.17;;;-37.00;99.90;;;;;;5027381;28;20604;-68
2022/10/20 09:49:26;;;;;;;13.70;12.27;;;-38.10;99.90;;;;;;5026851;28;20291;-69
2022/10/20 09:51:52;;;;;;;17.60;12.87;;;-37.40;99.90;;;;;;5023467;28;20242;-71
2022/10/20 09:54:21;;;;;;;16.40;12.70;;;-33.30;99.90;;;;;;5027822;28;20542;-68
2022/10/20 09:56:48;;;;;;;23.63;13.20;;;-34.60;99.90;;;;;;5035219;28;20203;-72
2022/10/20 09:59:34;;;;;;;15.47;11.93;;;-40.00;99.90;;;;;;5033087;28;20184;-69
2022/10/20 10:02:24;;;;;;;21.53;14.20;;;-40.00;99.90;;;;;;5028349;28;20435;-70
2022/10/20 10:04:52;;;;;;;14.70;12.43;;;-40.00;99.90;;;;;;5034580;28;20530;-70
2022/10/20 10:07:29;;;;;;;18.67;11.80;;;-40.00;99.90;;;;;;5029271;28;20536;-68
2022/10/20 10:09:59;;;;;;;15.23;12.57;;;-40.00;99.90;;;;;;5035565;28;20192;-70
2022/10/20 10:12:27;;;;;;;15.07;11.73;;;-40.00;99.90;;;;;;5033575;28;20212;-69
2022/10/20 10:14:53;;;;;;;21.70;10.83;;;-40.00;99.90;;;;;;5035327;28;20184;-70
2022/10/20 10:17:33;;;;;;;32.00;13.17;;;-40.00;99.90;;;;;;5034576;28;20210;-71
2022/10/20 10:20:00;;;;;;;18.60;12.77;;;-40.00;99.90;;;;;;5029902;28;20603;-67
2022/10/20 10:22:27;;;;;;;16.03;12.17;;;-40.00;99.90;;;;;;5017243;28;20573;-73
2022/10/20 10:24:54;;;;;;;12.27;10.83;;;-40.00;99.90;;;;;;5035316;28;20204;-69
2022/10/20 10:27:25;;;;;;;13.20;10.80;;;-40.00;99.90;;;;;;5034816;28;20188;-75
2022/10/20 10:29:52;;;;;;;14.13;9.60;;;-40.00;99.90;;;;;;5036424;28;20187;-74
2022/10/20 10:32:26;;;;;;;14.80;12.60;;;-40.00;99.90;;;;;;5037319;28;20254;-75
2022/10/20 10:35:07;;;;;;;16.50;9.57;;;-40.00;99.90;;;;;;5028165;28;20184;-73
2022/10/20 10:37:34;;;;;;;17.90;11.27;;;-40.00;99.90;;;;;;5022818;28;20201;-74
2022/10/20 10:40:23;;;;;;;13.63;9.80;;;-40.00;99.90;;;;;;5030220;28;20980;-71
2022/10/20 10:43:10;;;;;;;14.07;10.60;;;-40.00;99.90;;;;;;5024836;28;20195;-69
2022/10/20 10:45:58;;;;;;;10.00;8.97;;;-40.00;99.90;;;;;;5045335;28;20177;-68
2022/10/20 10:48:30;;;;;;;14.27;9.93;;;-40.00;99.90;;;;;;5034069;28;20185;-75
2022/10/20 10:51:04;;;;;;;13.73;9.87;;;-40.00;99.90;;;;;;5034207;28;20534;-74
2022/10/20 10:54:11;;;;;;;14.97;9.03;;;-40.00;99.90;;;;;;5028634;28;20214;-73
2022/10/20 10:57:29;;;;;;;9.17;8.27;;;-40.00;99.90;;;;;;5017635;28;20200;-74
2022/10/20 10:59:58;;;;;;;10.47;8.53;;;-40.00;99.90;;;;;;5018702;28;20546;-73
2022/10/20 11:02:48;;;;;;;13.60;9.80;;;-40.00;99.90;;;;;;5029537;28;20200;-75
2022/10/20 11:05:23;;;;;;;12.13;7.73;;;-40.00;99.90;;;;;;5034874;28;20212;-72
2022/10/20 11:08:19;;;;;;;9.00;7.73;;;-40.00;99.90;;;;;;5017646;28;20173;-71
2022/10/20 11:11:11;;;;;;;12.80;6.77;;;-40.00;99.90;;;;;;5042666;28;20183;-74
2022/10/20 11:13:46;;;;;;;10.47;7.67;;;-40.00;99.90;;;;;;5029230;28;20239;-73
2022/10/20 11:16:23;;;;;;;9.07;7.03;;;-40.00;99.90;;;;;;5035270;28;20187;-73
2022/10/20 11:19:28;;;;;;;13.20;7.87;;;-40.00;99.90;;;;;;5028552;28;20232;-73
2022/10/20 11:22:17;;;;;;;8.17;7.10;;;-40.00;99.90;;;;;;5013206;28;20687;-73
2022/10/20 11:24:58;;;;;;;9.27;8.20;;;-40.00;99.90;;;;;;4999638;28;20256;-74
2022/10/20 11:27:26;;;;;;;21.17;11.67;;;-40.00;99.90;;;;;;5026986;28;20243;-69
2022/10/20 11:30:07;;;;;;;9.87;7.20;;;-40.00;99.90;;;;;;5035782;28;20231;-69
2022/10/20 11:32:42;;;;;;;7.97;5.93;;;-40.00;99.90;;;;;;5034927;28;20184;-68
2022/10/20 11:35:32;;;;;;;20.07;6.30;;;-40.00;99.90;;;;;;5029248;28;20182;-67
2022/10/20 11:38:19;;;;;;;14.77;6.47;;;-40.00;99.90;;;;;;5032313;28;20204;-72
2022/10/20 11:41:02;;;;;;;11.60;4.90;;;-40.00;99.90;;;;;;5034149;28;20180;-72
2022/10/20 11:43:45;;;;;;;10.37;5.13;;;-40.00;99.90;;;;;;5032330;28;20183;-72
2022/10/20 11:46:13;;;;;;;3.97;3.60;;;-40.00;99.90;;;;;;5034424;28;20184;-73
2022/10/20 11:48:54;;;;;;;7.07;4.33;;;-40.00;99.90;;;;;;5034207;28;20190;-75
2022/10/20 11:51:28;;;;;;;15.40;4.87;;;-40.00;99.90;;;;;;5037007;28;20281;-72
2022/10/20 11:54:23;;;;;;;4.47;3.63;;;-40.00;99.90;;;;;;5033755;28;20188;-72
2022/10/20 11:57:03;;;;;;;5.60;3.20;;;-40.00;99.90;;;;;;5024980;28;20181;-73
2022/10/20 11:59:43;;;;;;;3.90;3.13;;;-40.00;99.90;;;;;;5045300;28;20491;-73
2022/10/20 12:02:33;;;;;;;8.83;3.33;;;-40.00;99.90;;;;;;5020978;28;20240;-71
2022/10/20 12:05:01;;;;;;;6.87;3.53;;;-40.00;99.90;;;;;;5028856;28;20208;-77
2022/10/20 12:07:45;;;;;;;7.80;3.83;;;-40.00;99.90;;;;;;5038052;28;20203;-69
2022/10/20 12:10:34;;;;;;;5.27;3.13;;;-40.00;99.90;;;;;;5038464;28;20668;-68
2022/10/20 12:13:32;;;;;;;9.27;4.73;;;-40.00;99.90;;;;;;5037238;28;20275;-66
2022/10/20 12:15:58;;;;;;;7.83;3.37;;;-40.00;99.90;;;;;;5020773;28;20193;-68
2022/10/20 12:18:30;;;;;;;4.90;3.37;;;-40.00;99.90;;;;;;5025501;28;20209;-69
2022/10/20 12:21:00;;;;;;;3.97;3.13;;;-40.00;99.90;;;;;;5032728;28;20176;-72
2022/10/20 12:23:44;;;;;;;4.93;2.40;;;-40.00;99.90;;;;;;5032046;28;20593;-70
2022/10/20 12:26:36;;;;;;;6.63;3.50;;;-40.00;99.90;;;;;;5031959;28;20195;-73
2022/10/20 12:29:30;;;;;;;5.17;2.60;;;-40.00;99.90;;;;;;5038040;28;20222;-71
2022/10/20 12:32:20;;;;;;;7.63;2.70;;;-40.00;99.90;;;;;;5025901;28;20211;-72
2022/10/20 12:34:53;;;;;;;6.30;2.10;;;-40.00;99.80;;;;;;5032339;28;20203;-72
2022/10/20 12:37:40;;;;;;;4.00;2.00;;;-40.00;96.00;;;;;;5033351;28;20588;-71
2022/10/20 12:40:06;;;;;;;5.43;2.50;;;-40.00;94.80;;;;;;5028643;28;20193;-73
2022/10/20 12:42:38;;;;;;;3.37;2.40;;;-40.00;92.20;;;;;;5037767;28;20191;-70
2022/10/20 12:45:19;;;;;;;6.13;2.60;;;-40.00;91.50;;;;;;5019217;28;20243;-72